sensor_id;sensor_type;location;lat;lon;timestamp;temperature;humidity
9824;DHT22;4951;50.778;7.196;2023-01-04T00:02:17;7.90;1.00
9824;DHT22;4951;50.778;7.196;2023-01-04T00:05:10;7.90;1.00
9824;DHT22;4951;50.778;7.196;2023-01-04T00:07:40;8.00;1.00
9824;DHT22;4951;50.778;7.196;2023-01-04T00:10:15;8.00;1.00
9824;DHT22;4951;50.778;7.196;2023-01-04T00:12:43;8.10;1.00
9824;DHT22;4951;50.778;7.196;2023-01-04T00:15:18;8.10;1.00
9824;DHT22;4951;50.778;7.196;2023-01-04T00:17:50;8.20;1.00
9824;DHT22;4951;50.778;7.196;2023-01-04T00:20:37;8.20;1.00
9824;DHT22;4951;50.778;7.196;2023-01-04T00:23:05;8.20;1.00
9824;DHT22;4951;50.778;7.196;2023-01-04T00:25:40;8.30;1.00
9824;DHT22;4951;50.778;7.196;2023-01-04T00:28:38;8.30;1.00
9824;DHT22;4951;50.778;7.196;2023-01-04T00:31:28;8.30;1.00
9824;DHT22;4951;50.778;7.196;2023-01-04T00:34:12;8.30;1.00
9824;DHT22;4951;50.778;7.196;2023-01-04T00:36:47;8.30;1.00
9824;DHT22;4951;50.778;7.196;2023-01-04T00:39:33;8.40;1.00
9824;DHT22;4951;50.778;7.196;2023-01-04T00:42:18;8.40;1.00
9824;DHT22;4951;50.778;7.196;2023-01-04T00:44:58;8.40;1.00
9824;DHT22;4951;50.778;7.196;2023-01-04T00:47:29;8.40;1.00
9824;DHT22;4951;50.778;7.196;2023-01-04T00:49:57;8.50;1.00
9824;DHT22;4951;50.778;7.196;2023-01-04T00:52:32;8.60;1.00
9824;DHT22;4951;50.778;7.196;2023-01-04T00:55:08;8.60;1.00
9824;DHT22;4951;50.778;7.196;2023-01-04T00:57:44;8.60;99.90
9824;DHT22;4951;50.778;7.196;2023-01-04T01:00:22;8.60;99.90
9824;DHT22;4951;50.778;7.196;2023-01-04T01:02:56;8.60;99.90
9824;DHT22;4951;50.778;7.196;2023-01-04T01:05:34;8.70;99.90
9824;DHT22;4951;50.778;7.196;2023-01-04T01:08:10;8.70;99.90
9824;DHT22;4951;50.778;7.196;2023-01-04T01:11:02;8.70;99.90
9824;DHT22;4951;50.778;7.196;2023-01-04T01:14:15;8.80;99.90
9824;DHT22;4951;50.778;7.196;2023-01-04T01:17:02;8.80;99.90
9824;DHT22;4951;50.778;7.196;2023-01-04T01:19:39;8.80;99.90
9824;DHT22;4951;50.778;7.196;2023-01-04T01:22:14;8.70;99.90
9824;DHT22;4951;50.778;7.196;2023-01-04T01:24:45;8.80;99.90
9824;DHT22;4951;50.778;7.196;2023-01-04T01:27:14;8.80;99.90
9824;DHT22;4951;50.778;7.196;2023-01-04T01:29:44;8.90;1.00
9824;DHT22;4951;50.778;7.196;2023-01-04T01:32:12;8.90;1.00
9824;DHT22;4951;50.778;7.196;2023-01-04T01:34:44;8.80;1.00
9824;DHT22;4951;50.778;7.196;2023-01-04T01:37:21;8.80;1.00
9824;DHT22;4951;50.778;7.196;2023-01-04T01:40:00;8.70;1.00
9824;DHT22;4951;50.778;7.196;2023-01-04T01:42:49;8.60;1.00
9824;DHT22;4951;50.778;7.196;2023-01-04T01:45:31;8.60;1.00
9824;DHT22;4951;50.778;7.196;2023-01-04T01:48:06;8.50;92.10
9824;DHT22;4951;50.778;7.196;2023-01-04T01:50:42;8.50;99.90
9824;DHT22;4951;50.778;7.196;2023-01-04T01:53:21;8.40;99.90
9824;DHT22;4951;50.778;7.196;2023-01-04T01:56:13;8.30;99.90
9824;DHT22;4951;50.778;7.196;2023-01-04T01:58:49;8.30;99.90
9824;DHT22;4951;50.778;7.196;2023-01-04T02:01:26;8.30;99.90
9824;DHT22;4951;50.778;7.196;2023-01-04T02:03:54;8.20;1.00
9824;DHT22;4951;50.778;7.196;2023-01-04T02:06:27;8.20;1.00
9824;DHT22;4951;50.778;7.196;2023-01-04T02:09:01;8.10;1.00
9824;DHT22;4951;50.778;7.196;2023-01-04T02:11:32;8.10;1.00
9824;DHT22;4951;50.778;7.196;2023-01-04T02:14:02;8.10;1.00
9824;DHT22;4951;50.778;7.196;2023-01-04T02:17:08;8.10;1.00
9824;DHT22;4951;50.778;7.196;2023-01-04T02:20:07;8.00;1.00
9824;DHT22;4951;50.778;7.196;2023-01-04T02:23:30;8.00;1.00
9824;DHT22;4951;50.778;7.196;2023-01-04T02:27:15;8.00;1.00
9824;DHT22;4951;50.778;7.196;2023-01-04T02:30:25;8.00;1.00
9824;DHT22;4951;50.778;7.196;2023-01-04T02:33:13;8.00;1.00
9824;DHT22;4951;50.778;7.196;2023-01-04T02:36:05;7.90;1.00
9824;DHT22;4951;50.778;7.196;2023-01-04T02:38:56;8.00;1.00
9824;DHT22;4951;50.778;7.196;2023-01-04T02:41:33;7.90;1.00
9824;DHT22;4951;50.778;7.196;2023-01-04T02:44:13;8.00;1.00
9824;DHT22;4951;50.778;7.196;2023-01-04T02:47:01;8.00;1.00
9824;DHT22;4951;50.778;7.196;2023-01-04T02:49:41;8.00;1.00
9824;DHT22;4951;50.778;7.196;2023-01-04T02:52:29;8.10;1.00
9824;DHT22;4951;50.778;7.196;2023-01-04T02:54:59;8.10;1.00
9824;DHT22;4951;50.778;7.196;2023-01-04T02:57:42;8.20;1.00
9824;DHT22;4951;50.778;7.196;2023-01-04T03:00:33;8.20;1.00
9824;DHT22;4951;50.778;7.196;2023-01-04T03:03:33;8.30;1.00
9824;DHT22;4951;50.778;7.196;2023-01-04T03:06:24;8.30;1.00
9824;DHT22;4951;50.778;7.196;2023-01-04T03:09:14;8.40;1.00
9824;DHT22;4951;50.778;7.196;2023-01-04T03:11:50;8.40;1.00
9824;DHT22;4951;50.778;7.196;2023-01-04T03:14:44;8.40;1.00
9824;DHT22;4951;50.778;7.196;2023-01-04T03:17:41;8.40;1.00
9824;DHT22;4951;50.778;7.196;2023-01-04T03:20:18;8.50;1.00
9824;DHT22;4951;50.778;7.196;2023-01-04T03:23:05;8.50;1.00
9824;DHT22;4951;50.778;7.196;2023-01-04T03:26:18;8.50;1.00
9824;DHT22;4951;50.778;7.196;2023-01-04T03:29:12;8.60;1.00
9824;DHT22;4951;50.778;7.196;2023-01-04T03:32:06;8.60;1.00
9824;DHT22;4951;50.778;7.196;2023-01-04T03:35:16;8.60;1.00
9824;DHT22;4951;50.778;7.196;2023-01-04T03:38:01;8.60;1.00
9824;DHT22;4951;50.778;7.196;2023-01-04T03:41:04;8.60;1.00
9824;DHT22;4951;50.778;7.196;2023-01-04T03:44:02;8.60;1.00
9824;DHT22;4951;50.778;7.196;2023-01-04T03:46:57;8.60;1.00
9824;DHT22;4951;50.778;7.196;2023-01-04T03:50:01;8.60;1.00
9824;DHT22;4951;50.778;7.196;2023-01-04T03:52:38;8.60;1.00
9824;DHT22;4951;50.778;7.196;2023-01-04T03:55:12;8.70;1.00
9824;DHT22;4951;50.778;7.196;2023-01-04T03:57:53;8.70;1.00
9824;DHT22;4951;50.778;7.196;2023-01-04T04:00:37;8.70;1.00
9824;DHT22;4951;50.778;7.196;2023-01-04T04:03:06;8.70;1.00
9824;DHT22;4951;50.778;7.196;2023-01-04T04:05:38;8.70;1.00
9824;DHT22;4951;50.778;7.196;2023-01-04T04:08:25;8.70;1.00
9824;DHT22;4951;50.778;7.196;2023-01-04T04:11:02;8.80;1.00
9824;DHT22;4951;50.778;7.196;2023-01-04T04:13:59;8.80;1.00
9824;DHT22;4951;50.778;7.196;2023-01-04T04:16:50;8.80;1.00
9824;DHT22;4951;50.778;7.196;2023-01-04T04:19:20;8.80;1.00
9824;DHT22;4951;50.778;7.196;2023-01-04T04:21:51;8.80;1.00
9824;DHT22;4951;50.778;7.196;2023-01-04T04:24:20;8.80;1.00
9824;DHT22;4951;50.778;7.196;2023-01-04T04:26:49;8.80;1.00
9824;DHT22;4951;50.778;7.196;2023-01-04T04:29:23;8.90;1.00
9824;DHT22;4951;50.778;7.196;2023-01-04T04:31:50;8.90;1.00
9824;DHT22;4951;50.778;7.196;2023-01-04T04:34:52;8.90;1.00
9824;DHT22;4951;50.778;7.196;2023-01-04T04:37:20;8.90;1.00
9824;DHT22;4951;50.778;7.196;2023-01-04T04:39:53;8.80;1.00
9824;DHT22;4951;50.778;7.196;2023-01-04T04:42:21;8.70;1.00
9824;DHT22;4951;50.778;7.196;2023-01-04T04:44:50;8.70;1.00
9824;DHT22;4951;50.778;7.196;2023-01-04T04:47:20;8.70;1.00
9824;DHT22;4951;50.778;7.196;2023-01-04T04:49:50;8.70;1.00
9824;DHT22;4951;50.778;7.196;2023-01-04T04:52:33;8.60;1.00
9824;DHT22;4951;50.778;7.196;2023-01-04T04:55:09;8.60;1.00
9824;DHT22;4951;50.778;7.196;2023-01-04T04:57:49;8.60;1.00
9824;DHT22;4951;50.778;7.196;2023-01-04T05:00:39;8.60;1.00
9824;DHT22;4951;50.778;7.196;2023-01-04T05:03:08;8.60;1.00
9824;DHT22;4951;50.778;7.196;2023-01-04T05:05:59;8.70;1.00
9824;DHT22;4951;50.778;7.196;2023-01-04T05:08:27;8.70;1.00
9824;DHT22;4951;50.778;7.196;2023-01-04T05:11:06;8.70;1.00
9824;DHT22;4951;50.778;7.196;2023-01-04T05:13:43;8.70;1.00
9824;DHT22;4951;50.778;7.196;2023-01-04T05:16:13;8.70;1.00
9824;DHT22;4951;50.778;7.196;2023-01-04T05:19:06;8.70;1.00
9824;DHT22;4951;50.778;7.196;2023-01-04T05:21:38;8.80;1.00
9824;DHT22;4951;50.778;7.196;2023-01-04T05:24:07;8.90;1.00
9824;DHT22;4951;50.778;7.196;2023-01-04T05:26:47;8.90;1.00
9824;DHT22;4951;50.778;7.196;2023-01-04T05:29:30;9.00;1.00
9824;DHT22;4951;50.778;7.196;2023-01-04T05:32:29;9.00;1.00
9824;DHT22;4951;50.778;7.196;2023-01-04T05:35:05;9.10;1.00
9824;DHT22;4951;50.778;7.196;2023-01-04T05:37:43;9.10;1.00
9824;DHT22;4951;50.778;7.196;2023-01-04T05:40:12;9.10;1.00
9824;DHT22;4951;50.778;7.196;2023-01-04T05:42:47;9.10;1.00
9824;DHT22;4951;50.778;7.196;2023-01-04T05:45:17;9.10;1.00
9824;DHT22;4951;50.778;7.196;2023-01-04T05:48:07;9.10;1.00
9824;DHT22;4951;50.778;7.196;2023-01-04T05:50:55;9.00;1.00
9824;DHT22;4951;50.778;7.196;2023-01-04T05:53:35;9.00;1.00
9824;DHT22;4951;50.778;7.196;2023-01-04T05:56:14;9.00;1.00
9824;DHT22;4951;50.778;7.196;2023-01-04T05:58:49;9.00;1.00
9824;DHT22;4951;50.778;7.196;2023-01-04T06:01:20;9.00;1.00
9824;DHT22;4951;50.778;7.196;2023-01-04T06:03:52;9.00;1.00
9824;DHT22;4951;50.778;7.196;2023-01-04T06:06:25;9.10;1.00
9824;DHT22;4951;50.778;7.196;2023-01-04T06:08:55;9.10;1.00
9824;DHT22;4951;50.778;7.196;2023-01-04T06:11:31;9.20;1.00
9824;DHT22;4951;50.778;7.196;2023-01-04T06:13:59;9.20;1.00
9824;DHT22;4951;50.778;7.196;2023-01-04T06:16:37;9.20;1.00
9824;DHT22;4951;50.778;7.196;2023-01-04T06:19:08;9.20;1.00
9824;DHT22;4951;50.778;7.196;2023-01-04T06:21:47;9.20;1.00
9824;DHT22;4951;50.778;7.196;2023-01-04T06:24:23;9.20;1.00
9824;DHT22;4951;50.778;7.196;2023-01-04T06:26:53;9.30;1.00
9824;DHT22;4951;50.778;7.196;2023-01-04T06:29:22;9.30;1.00
9824;DHT22;4951;50.778;7.196;2023-01-04T06:31:49;9.30;1.00
9824;DHT22;4951;50.778;7.196;2023-01-04T06:34:35;9.40;1.00
9824;DHT22;4951;50.778;7.196;2023-01-04T06:37:04;9.40;1.00
9824;DHT22;4951;50.778;7.196;2023-01-04T06:39:39;9.40;1.00
9824;DHT22;4951;50.778;7.196;2023-01-04T06:42:06;9.40;1.00
9824;DHT22;4951;50.778;7.196;2023-01-04T06:44:55;9.40;1.00
9824;DHT22;4951;50.778;7.196;2023-01-04T06:47:25;9.50;1.00
9824;DHT22;4951;50.778;7.196;2023-01-04T06:50:25;9.50;1.00
9824;DHT22;4951;50.778;7.196;2023-01-04T06:53:01;9.60;1.00
9824;DHT22;4951;50.778;7.196;2023-01-04T06:55:50;9.60;1.00
9824;DHT22;4951;50.778;7.196;2023-01-04T06:58:47;9.60;1.00
9824;DHT22;4951;50.778;7.196;2023-01-04T07:01:31;9.70;1.00
9824;DHT22;4951;50.778;7.196;2023-01-04T07:03:59;9.60;1.00
9824;DHT22;4951;50.778;7.196;2023-01-04T07:06:28;9.60;1.00
9824;DHT22;4951;50.778;7.196;2023-01-04T07:09:15;9.60;1.00
9824;DHT22;4951;50.778;7.196;2023-01-04T07:11:51;9.60;1.00
9824;DHT22;4951;50.778;7.196;2023-01-04T07:14:42;9.60;1.00
9824;DHT22;4951;50.778;7.196;2023-01-04T07:17:41;9.60;1.00
9824;DHT22;4951;50.778;7.196;2023-01-04T07:20:09;9.50;1.00
9824;DHT22;4951;50.778;7.196;2023-01-04T07:22:37;9.50;1.00
9824;DHT22;4951;50.778;7.196;2023-01-04T07:25:04;9.60;1.00
9824;DHT22;4951;50.778;7.196;2023-01-04T07:27:32;9.60;1.00
9824;DHT22;4951;50.778;7.196;2023-01-04T07:29:59;9.60;1.00
9824;DHT22;4951;50.778;7.196;2023-01-04T07:32:26;9.60;1.00
9824;DHT22;4951;50.778;7.196;2023-01-04T07:34:55;9.70;1.00
9824;DHT22;4951;50.778;7.196;2023-01-04T07:37:23;9.70;1.00
9824;DHT22;4951;50.778;7.196;2023-01-04T07:39:50;9.70;1.00
9824;DHT22;4951;50.778;7.196;2023-01-04T07:42:17;9.70;1.00
9824;DHT22;4951;50.778;7.196;2023-01-04T07:44:46;9.70;1.00
9824;DHT22;4951;50.778;7.196;2023-01-04T07:47:14;9.70;1.00
9824;DHT22;4951;50.778;7.196;2023-01-04T07:49:44;9.70;1.00
9824;DHT22;4951;50.778;7.196;2023-01-04T07:52:20;9.70;1.00
9824;DHT22;4951;50.778;7.196;2023-01-04T07:55:00;9.70;1.00
9824;DHT22;4951;50.778;7.196;2023-01-04T07:57:38;9.80;1.00
9824;DHT22;4951;50.778;7.196;2023-01-04T08:00:10;9.80;1.00
9824;DHT22;4951;50.778;7.196;2023-01-04T08:03:06;9.90;1.00
9824;DHT22;4951;50.778;7.196;2023-01-04T08:05:40;9.90;1.00
9824;DHT22;4951;50.778;7.196;2023-01-04T08:08:42;9.90;1.00
9824;DHT22;4951;50.778;7.196;2023-01-04T08:11:47;10.00;1.00
9824;DHT22;4951;50.778;7.196;2023-01-04T08:14:25;10.00;1.00
9824;DHT22;4951;50.778;7.196;2023-01-04T08:16:53;9.90;1.00
9824;DHT22;4951;50.778;7.196;2023-01-04T08:19:30;9.90;1.00
9824;DHT22;4951;50.778;7.196;2023-01-04T08:22:00;9.90;1.00
9824;DHT22;4951;50.778;7.196;2023-01-04T08:24:50;9.90;1.00
9824;DHT22;4951;50.778;7.196;2023-01-04T08:27:19;10.00;1.00
9824;DHT22;4951;50.778;7.196;2023-01-04T08:29:57;9.90;1.00
9824;DHT22;4951;50.778;7.196;2023-01-04T08:32:41;9.90;1.00
9824;DHT22;4951;50.778;7.196;2023-01-04T08:35:11;9.90;1.00
9824;DHT22;4951;50.778;7.196;2023-01-04T08:37:43;9.90;1.00
9824;DHT22;4951;50.778;7.196;2023-01-04T08:40:21;9.90;1.00
9824;DHT22;4951;50.778;7.196;2023-01-04T08:42:51;10.00;1.00
9824;DHT22;4951;50.778;7.196;2023-01-04T08:45:18;10.00;1.00
9824;DHT22;4951;50.778;7.196;2023-01-04T08:47:46;10.00;1.00
9824;DHT22;4951;50.778;7.196;2023-01-04T08:50:25;10.00;1.00
9824;DHT22;4951;50.778;7.196;2023-01-04T08:53:06;10.00;1.00
9824;DHT22;4951;50.778;7.196;2023-01-04T08:55:38;10.10;1.00
9824;DHT22;4951;50.778;7.196;2023-01-04T08:58:09;10.10;1.00
9824;DHT22;4951;50.778;7.196;2023-01-04T09:00:49;10.10;1.00
9824;DHT22;4951;50.778;7.196;2023-01-04T09:03:30;10.20;1.00
9824;DHT22;4951;50.778;7.196;2023-01-04T09:06:09;10.20;1.00
9824;DHT22;4951;50.778;7.196;2023-01-04T09:08:43;10.30;1.00
9824;DHT22;4951;50.778;7.196;2023-01-04T09:11:24;10.40;1.00
9824;DHT22;4951;50.778;7.196;2023-01-04T09:14:10;10.40;1.00
9824;DHT22;4951;50.778;7.196;2023-01-04T09:16:40;10.50;1.00
9824;DHT22;4951;50.778;7.196;2023-01-04T09:19:59;10.50;1.00
9824;DHT22;4951;50.778;7.196;2023-01-04T09:22:30;10.60;1.00
9824;DHT22;4951;50.778;7.196;2023-01-04T09:25:05;10.60;1.00
9824;DHT22;4951;50.778;7.196;2023-01-04T09:27:42;10.70;1.00
9824;DHT22;4951;50.778;7.196;2023-01-04T09:30:32;10.70;1.00
9824;DHT22;4951;50.778;7.196;2023-01-04T09:33:20;10.80;1.00
9824;DHT22;4951;50.778;7.196;2023-01-04T09:36:21;10.80;1.00
9824;DHT22;4951;50.778;7.196;2023-01-04T09:38:51;10.90;1.00
9824;DHT22;4951;50.778;7.196;2023-01-04T09:41:23;11.00;1.00
9824;DHT22;4951;50.778;7.196;2023-01-04T09:47:12;11.10;99.90
9824;DHT22;4951;50.778;7.196;2023-01-04T09:49:53;11.20;99.90
9824;DHT22;4951;50.778;7.196;2023-01-04T09:52:33;11.40;99.90
9824;DHT22;4951;50.778;7.196;2023-01-04T09:55:25;11.50;99.90
9824;DHT22;4951;50.778;7.196;2023-01-04T09:57:59;11.50;99.90
9824;DHT22;4951;50.778;7.196;2023-01-04T10:00:35;11.60;99.90
9824;DHT22;4951;50.778;7.196;2023-01-04T10:03:14;11.70;99.90
9824;DHT22;4951;50.778;7.196;2023-01-04T10:05:50;11.70;99.90
9824;DHT22;4951;50.778;7.196;2023-01-04T10:08:19;11.80;99.90
9824;DHT22;4951;50.778;7.196;2023-01-04T10:10:52;11.80;99.90
9824;DHT22;4951;50.778;7.196;2023-01-04T10:13:50;11.80;91.10
9824;DHT22;4951;50.778;7.196;2023-01-04T10:20:03;11.80;73.40
9824;DHT22;4951;50.778;7.196;2023-01-04T10:23:15;11.80;99.90
9824;DHT22;4951;50.778;7.196;2023-01-04T10:25:59;11.80;46.70
9824;DHT22;4951;50.778;7.196;2023-01-04T10:28:44;11.90;50.20
9824;DHT22;4951;50.778;7.196;2023-01-04T10:31:25;11.90;26.50
9824;DHT22;4951;50.778;7.196;2023-01-04T10:34:03;12.00;38.40
9824;DHT22;4951;50.778;7.196;2023-01-04T10:36:36;12.10;43.00
9824;DHT22;4951;50.778;7.196;2023-01-04T10:39:13;12.10;1.00
9824;DHT22;4951;50.778;7.196;2023-01-04T10:41:59;12.10;1.00
9824;DHT22;4951;50.778;7.196;2023-01-04T10:48:01;12.30;1.00
9824;DHT22;4951;50.778;7.196;2023-01-04T10:50:40;12.30;1.00
9824;DHT22;4951;50.778;7.196;2023-01-04T10:53:26;12.30;1.00
9824;DHT22;4951;50.778;7.196;2023-01-04T10:56:07;12.40;1.00
9824;DHT22;4951;50.778;7.196;2023-01-04T10:58:38;12.40;1.00
9824;DHT22;4951;50.778;7.196;2023-01-04T11:01:13;12.40;1.00
9824;DHT22;4951;50.778;7.196;2023-01-04T11:04:06;12.30;1.00
9824;DHT22;4951;50.778;7.196;2023-01-04T11:10:02;11.90;16.50
9824;DHT22;4951;50.778;7.196;2023-01-04T11:12:42;11.90;38.60
9824;DHT22;4951;50.778;7.196;2023-01-04T11:16:09;12.00;23.60
9824;DHT22;4951;50.778;7.196;2023-01-04T11:18:38;12.10;1.80
9824;DHT22;4951;50.778;7.196;2023-01-04T11:21:09;12.10;1.00
9824;DHT22;4951;50.778;7.196;2023-01-04T11:23:40;12.10;1.00
9824;DHT22;4951;50.778;7.196;2023-01-04T11:26:12;12.20;1.00
9824;DHT22;4951;50.778;7.196;2023-01-04T11:28:46;12.20;1.00
9824;DHT22;4951;50.778;7.196;2023-01-04T11:31:21;12.20;1.00
9824;DHT22;4951;50.778;7.196;2023-01-04T11:33:53;12.20;1.00
9824;DHT22;4951;50.778;7.196;2023-01-04T11:36:38;12.10;1.00
9824;DHT22;4951;50.778;7.196;2023-01-04T11:39:22;12.10;1.00
9824;DHT22;4951;50.778;7.196;2023-01-04T11:41:58;12.00;28.50
9824;DHT22;4951;50.778;7.196;2023-01-04T11:44:28;11.90;99.90
9824;DHT22;4951;50.778;7.196;2023-01-04T11:47:05;11.90;99.90
9824;DHT22;4951;50.778;7.196;2023-01-04T11:49:34;11.90;99.90
9824;DHT22;4951;50.778;7.196;2023-01-04T11:52:02;11.90;99.90
9824;DHT22;4951;50.778;7.196;2023-01-04T11:54:29;11.90;99.90
9824;DHT22;4951;50.778;7.196;2023-01-04T11:56:59;12.00;99.90
9824;DHT22;4951;50.778;7.196;2023-01-04T11:59:28;12.00;99.90
9824;DHT22;4951;50.778;7.196;2023-01-04T12:02:18;12.00;99.90
9824;DHT22;4951;50.778;7.196;2023-01-04T12:04:45;12.00;99.90
9824;DHT22;4951;50.778;7.196;2023-01-04T12:07:23;12.00;99.90
9824;DHT22;4951;50.778;7.196;2023-01-04T12:09:54;12.00;99.90
9824;DHT22;4951;50.778;7.196;2023-01-04T12:12:34;12.00;99.90
9824;DHT22;4951;50.778;7.196;2023-01-04T12:15:13;12.00;99.90
9824;DHT22;4951;50.778;7.196;2023-01-04T12:17:58;12.00;99.90
9824;DHT22;4951;50.778;7.196;2023-01-04T12:20:36;12.00;99.90
9824;DHT22;4951;50.778;7.196;2023-01-04T12:23:12;12.00;99.90
9824;DHT22;4951;50.778;7.196;2023-01-04T12:25:45;12.00;99.90
9824;DHT22;4951;50.778;7.196;2023-01-04T12:28:38;12.00;99.90
9824;DHT22;4951;50.778;7.196;2023-01-04T12:31:39;12.00;99.90
9824;DHT22;4951;50.778;7.196;2023-01-04T12:34:40;12.00;99.90
9824;DHT22;4951;50.778;7.196;2023-01-04T12:37:44;12.00;99.90
9824;DHT22;4951;50.778;7.196;2023-01-04T12:40:51;12.00;99.90
9824;DHT22;4951;50.778;7.196;2023-01-04T12:43:38;12.00;99.90
9824;DHT22;4951;50.778;7.196;2023-01-04T12:46:39;12.00;99.90
9824;DHT22;4951;50.778;7.196;2023-01-04T12:49:58;12.00;99.90
9824;DHT22;4951;50.778;7.196;2023-01-04T12:52:48;11.90;99.90
9824;DHT22;4951;50.778;7.196;2023-01-04T12:59:06;11.90;99.90
9824;DHT22;4951;50.778;7.196;2023-01-04T13:02:20;11.90;99.90
9824;DHT22;4951;50.778;7.196;2023-01-04T13:05:35;11.90;99.90
9824;DHT22;4951;50.778;7.196;2023-01-04T13:08:19;12.00;99.90
9824;DHT22;4951;50.778;7.196;2023-01-04T13:11:23;12.00;99.90
9824;DHT22;4951;50.778;7.196;2023-01-04T13:14:01;12.10;99.90
9824;DHT22;4951;50.778;7.196;2023-01-04T13:16:48;12.10;99.90
9824;DHT22;4951;50.778;7.196;2023-01-04T13:19:20;12.20;99.90
9824;DHT22;4951;50.778;7.196;2023-01-04T13:21:50;12.30;99.90
9824;DHT22;4951;50.778;7.196;2023-01-04T13:24:21;12.30;99.90
9824;DHT22;4951;50.778;7.196;2023-01-04T13:27:13;12.30;99.90
9824;DHT22;4951;50.778;7.196;2023-01-04T13:29:48;12.40;99.90
9824;DHT22;4951;50.778;7.196;2023-01-04T13:32:26;12.50;99.90
9824;DHT22;4951;50.778;7.196;2023-01-04T13:35:01;12.50;99.90
9824;DHT22;4951;50.778;7.196;2023-01-04T13:37:35;12.60;99.90
9824;DHT22;4951;50.778;7.196;2023-01-04T13:40:25;12.60;99.90
9824;DHT22;4951;50.778;7.196;2023-01-04T13:46:11;12.70;99.90
9824;DHT22;4951;50.778;7.196;2023-01-04T13:48:52;12.70;59.20
9824;DHT22;4951;50.778;7.196;2023-01-04T13:51:28;12.80;10.90
9824;DHT22;4951;50.778;7.196;2023-01-04T13:54:16;12.80;1.00
9824;DHT22;4951;50.778;7.196;2023-01-04T13:57:19;12.80;1.00
9824;DHT22;4951;50.778;7.196;2023-01-04T14:00:11;12.90;1.00
9824;DHT22;4951;50.778;7.196;2023-01-04T14:02:39;12.90;1.00
9824;DHT22;4951;50.778;7.196;2023-01-04T14:05:21;12.90;1.00
9824;DHT22;4951;50.778;7.196;2023-01-04T14:08:10;13.00;1.00
9824;DHT22;4951;50.778;7.196;2023-01-04T14:10:42;13.00;1.00
9824;DHT22;4951;50.778;7.196;2023-01-04T14:13:14;13.00;1.00
9824;DHT22;4951;50.778;7.196;2023-01-04T14:16:09;13.10;1.00
9824;DHT22;4951;50.778;7.196;2023-01-04T14:18:42;13.10;1.00
9824;DHT22;4951;50.778;7.196;2023-01-04T14:21:34;13.10;1.00
9824;DHT22;4951;50.778;7.196;2023-01-04T14:24:30;13.10;1.00
9824;DHT22;4951;50.778;7.196;2023-01-04T14:30:27;13.10;1.00
9824;DHT22;4951;50.778;7.196;2023-01-04T14:33:04;13.20;1.00
9824;DHT22;4951;50.778;7.196;2023-01-04T14:35:40;13.20;1.00
9824;DHT22;4951;50.778;7.196;2023-01-04T14:38:13;13.20;1.00
9824;DHT22;4951;50.778;7.196;2023-01-04T14:40:46;13.20;1.00
9824;DHT22;4951;50.778;7.196;2023-01-04T14:43:42;13.20;1.00
9824;DHT22;4951;50.778;7.196;2023-01-04T14:46:39;13.20;1.00
9824;DHT22;4951;50.778;7.196;2023-01-04T14:49:27;13.20;1.00
9824;DHT22;4951;50.778;7.196;2023-01-04T14:52:17;13.20;1.00
9824;DHT22;4951;50.778;7.196;2023-01-04T14:55:14;13.20;1.00
9824;DHT22;4951;50.778;7.196;2023-01-04T14:57:43;13.20;1.00
9824;DHT22;4951;50.778;7.196;2023-01-04T15:00:37;13.30;1.00
9824;DHT22;4951;50.778;7.196;2023-01-04T15:03:11;13.30;1.00
9824;DHT22;4951;50.778;7.196;2023-01-04T15:05:49;13.30;1.00
9824;DHT22;4951;50.778;7.196;2023-01-04T15:08:25;13.30;1.00
9824;DHT22;4951;50.778;7.196;2023-01-04T15:11:49;13.40;1.00
9824;DHT22;4951;50.778;7.196;2023-01-04T15:14:47;13.40;1.00
9824;DHT22;4951;50.778;7.196;2023-01-04T15:17:44;13.30;1.00
9824;DHT22;4951;50.778;7.196;2023-01-04T15:20:29;13.30;1.00
9824;DHT22;4951;50.778;7.196;2023-01-04T15:22:58;13.40;1.00
9824;DHT22;4951;50.778;7.196;2023-01-04T15:25:27;13.40;1.00
9824;DHT22;4951;50.778;7.196;2023-01-04T15:28:17;13.40;1.00
9824;DHT22;4951;50.778;7.196;2023-01-04T15:30:52;13.40;1.00
9824;DHT22;4951;50.778;7.196;2023-01-04T15:33:35;13.40;1.00
9824;DHT22;4951;50.778;7.196;2023-01-04T15:36:37;13.40;1.00
9824;DHT22;4951;50.778;7.196;2023-01-04T15:39:10;13.40;1.00
9824;DHT22;4951;50.778;7.196;2023-01-04T15:41:40;13.40;1.00
9824;DHT22;4951;50.778;7.196;2023-01-04T15:44:43;13.40;1.00
9824;DHT22;4951;50.778;7.196;2023-01-04T15:48:14;13.30;1.00
9824;DHT22;4951;50.778;7.196;2023-01-04T15:50:47;13.30;1.00
9824;DHT22;4951;50.778;7.196;2023-01-04T15:53:18;13.30;1.00
9824;DHT22;4951;50.778;7.196;2023-01-04T15:56:36;13.20;1.00
9824;DHT22;4951;50.778;7.196;2023-01-04T15:59:09;13.20;1.00
9824;DHT22;4951;50.778;7.196;2023-01-04T16:01:55;13.20;1.00
9824;DHT22;4951;50.778;7.196;2023-01-04T16:04:43;13.20;1.00
9824;DHT22;4951;50.778;7.196;2023-01-04T16:10:11;13.10;1.00
9824;DHT22;4951;50.778;7.196;2023-01-04T16:12:52;13.20;1.00
9824;DHT22;4951;50.778;7.196;2023-01-04T16:15:23;13.20;1.00
9824;DHT22;4951;50.778;7.196;2023-01-04T16:18:07;13.20;1.00
9824;DHT22;4951;50.778;7.196;2023-01-04T16:20:42;13.20;1.00
9824;DHT22;4951;50.778;7.196;2023-01-04T16:23:12;13.10;1.00
9824;DHT22;4951;50.778;7.196;2023-01-04T16:25:54;13.00;53.80
9824;DHT22;4951;50.778;7.196;2023-01-04T16:28:36;12.80;99.90
9824;DHT22;4951;50.778;7.196;2023-01-04T16:31:09;12.60;99.90
9824;DHT22;4951;50.778;7.196;2023-01-04T16:33:44;12.50;99.90
9824;DHT22;4951;50.778;7.196;2023-01-04T16:36:22;12.50;99.90
9824;DHT22;4951;50.778;7.196;2023-01-04T16:39:07;12.50;99.90
9824;DHT22;4951;50.778;7.196;2023-01-04T16:41:43;12.50;99.90
9824;DHT22;4951;50.778;7.196;2023-01-04T16:44:37;12.60;99.90
9824;DHT22;4951;50.778;7.196;2023-01-04T16:47:05;12.60;99.90
9824;DHT22;4951;50.778;7.196;2023-01-04T16:49:43;12.60;1.00
9824;DHT22;4951;50.778;7.196;2023-01-04T16:52:33;12.60;1.00
9824;DHT22;4951;50.778;7.196;2023-01-04T16:55:26;12.60;1.00
9824;DHT22;4951;50.778;7.196;2023-01-04T16:57:56;12.50;1.00
9824;DHT22;4951;50.778;7.196;2023-01-04T17:00:25;12.40;1.00
9824;DHT22;4951;50.778;7.196;2023-01-04T17:02:58;12.40;1.00
9824;DHT22;4951;50.778;7.196;2023-01-04T17:05:38;12.20;1.00
9824;DHT22;4951;50.778;7.196;2023-01-04T17:08:33;12.10;1.00
9824;DHT22;4951;50.778;7.196;2023-01-04T17:11:10;12.00;1.00
9824;DHT22;4951;50.778;7.196;2023-01-04T17:13:43;11.90;1.00
9824;DHT22;4951;50.778;7.196;2023-01-04T17:16:25;11.90;1.00
9824;DHT22;4951;50.778;7.196;2023-01-04T17:19:21;11.80;1.00
9824;DHT22;4951;50.778;7.196;2023-01-04T17:25:15;11.70;1.00
9824;DHT22;4951;50.778;7.196;2023-01-04T17:28:18;11.70;1.00
9824;DHT22;4951;50.778;7.196;2023-01-04T17:30:53;11.70;1.00
9824;DHT22;4951;50.778;7.196;2023-01-04T17:33:21;11.70;1.00
9824;DHT22;4951;50.778;7.196;2023-01-04T17:35:49;11.70;1.00
9824;DHT22;4951;50.778;7.196;2023-01-04T17:38:33;11.70;1.00
9824;DHT22;4951;50.778;7.196;2023-01-04T17:42:12;11.60;1.00
9824;DHT22;4951;50.778;7.196;2023-01-04T17:44:18;11.50;1.00
9824;DHT22;4951;50.778;7.196;2023-01-04T17:46:54;11.50;1.00
9824;DHT22;4951;50.778;7.196;2023-01-04T17:49:36;11.50;28.20
9824;DHT22;4951;50.778;7.196;2023-01-04T17:52:19;11.40;80.90
9824;DHT22;4951;50.778;7.196;2023-01-04T17:54:49;11.40;99.90
9824;DHT22;4951;50.778;7.196;2023-01-04T17:57:18;11.40;99.90
9824;DHT22;4951;50.778;7.196;2023-01-04T17:59:46;11.40;99.90
9824;DHT22;4951;50.778;7.196;2023-01-04T18:02:13;11.40;99.90
9824;DHT22;4951;50.778;7.196;2023-01-04T18:04:43;11.40;99.90
9824;DHT22;4951;50.778;7.196;2023-01-04T18:07:18;11.50;99.90
9824;DHT22;4951;50.778;7.196;2023-01-04T18:10:00;11.50;99.90
9824;DHT22;4951;50.778;7.196;2023-01-04T18:12:49;11.60;82.30
9824;DHT22;4951;50.778;7.196;2023-01-04T18:15:37;11.70;14.10
9824;DHT22;4951;50.778;7.196;2023-01-04T18:18:29;11.60;1.00
9824;DHT22;4951;50.778;7.196;2023-01-04T18:21:15;11.60;1.00
9824;DHT22;4951;50.778;7.196;2023-01-04T18:24:19;11.60;1.00